createdAt,value
2023-03-20T00:00:25.072Z,99715.44
2023-03-20T00:01:31.442Z,99718.47
2023-03-20T00:02:33.362Z,99718.78
2023-03-20T00:03:35.426Z,99721.41
2023-03-20T00:04:37.597Z,99727.16
2023-03-20T00:05:40.583Z,99721.94
2023-03-20T00:06:42.794Z,99726.47
2023-03-20T00:07:45.631Z,99732.88
2023-03-20T00:08:49.332Z,99733.19
2023-03-20T00:09:51.854Z,99730.53
2023-03-20T00:10:54.225Z,99731.53
2023-03-20T00:11:56.599Z,99724.06
2023-03-20T00:12:58.907Z,99730.12
2023-03-20T00:14:06.136Z,99727.75
2023-03-20T00:15:19.975Z,99726.94
2023-03-20T00:16:24.134Z,99728.50
2023-03-20T00:17:26.517Z,99733.75
2023-03-20T00:18:29.157Z,99734.22
2023-03-20T00:19:31.069Z,99733.25
2023-03-20T00:20:33.071Z,99727.66
2023-03-20T00:21:35.009Z,99719.16
2023-03-20T00:22:37.218Z,99727.78
2023-03-20T00:23:39.078Z,99720.97
2023-03-20T00:24:41.121Z,99722.47
2023-03-20T00:25:46.051Z,99726.09
2023-03-20T00:26:50.426Z,99717.69
2023-03-20T00:27:53.086Z,99725.00
2023-03-20T00:28:55.019Z,99718.56
2023-03-20T00:29:56.894Z,99714.94
2023-03-20T00:30:59.289Z,99711.94
2023-03-20T00:32:01.414Z,99716.69
2023-03-20T00:33:03.620Z,99711.47
2023-03-20T00:34:11.865Z,99716.88
2023-03-20T00:35:32.017Z,99713.03
2023-03-20T00:36:34.125Z,99708.69
2023-03-20T00:37:36.057Z,99710.44
2023-03-20T00:38:38.227Z,99706.50
2023-03-20T00:39:41.215Z,99709.13
2023-03-20T00:40:43.107Z,99703.06
2023-03-20T00:41:57.974Z,99708.22
2023-03-20T00:43:02.205Z,99707.91
2023-03-20T00:44:25.595Z,99708.34
2023-03-20T00:45:29.140Z,99715.16
2023-03-20T00:46:37.548Z,99712.37
2023-03-20T00:47:41.989Z,99709.44
2023-03-20T00:48:44.228Z,99708.81
2023-03-20T00:49:48.544Z,99709.97
2023-03-20T00:50:50.551Z,99709.16
2023-03-20T00:51:52.422Z,99710.72
2023-03-20T00:52:54.519Z,99707.47
2023-03-20T00:53:56.745Z,99710.87
2023-03-20T00:54:58.976Z,99707.53
2023-03-20T00:56:01.384Z,99707.28
2023-03-20T00:57:17.999Z,99698.72
2023-03-20T00:58:21.797Z,99706.53
2023-03-20T00:59:28.914Z,99712.53
2023-03-20T01:00:33.849Z,99712.69
2023-03-20T01:01:36.229Z,99709.13
2023-03-20T01:02:38.267Z,99714.56
2023-03-20T01:03:40.808Z,99706.69
2023-03-20T01:04:42.889Z,99707.06
2023-03-20T01:05:45.794Z,99709.91
2023-03-20T01:06:47.680Z,99705.75
2023-03-20T01:07:49.805Z,99708.69
2023-03-20T01:08:51.705Z,99713.13
2023-03-20T01:09:53.587Z,99708.97
2023-03-20T01:10:58.491Z,99705.50
2023-03-20T01:12:01.477Z,99707.94
2023-03-20T01:13:03.650Z,99711.13
2023-03-20T01:14:13.396Z,99705.09
2023-03-20T01:15:20.370Z,99710.94
2023-03-20T01:16:24.878Z,99707.72
2023-03-20T01:17:29.101Z,99709.47
2023-03-20T01:18:31.351Z,99717.13
2023-03-20T01:19:33.200Z,99711.56
2023-03-20T01:20:35.087Z,99714.34
2023-03-20T01:21:37.514Z,99716.38
2023-03-20T01:22:39.466Z,99708.94
2023-03-20T01:23:41.689Z,99704.75
2023-03-20T01:24:44.025Z,99717.97
2023-03-20T01:25:46.306Z,99722.38
2023-03-20T01:26:51.763Z,99716.41
2023-03-20T01:27:55.702Z,99712.03
2023-03-20T01:28:57.992Z,99717.63
2023-03-20T01:30:00.055Z,99716.31
2023-03-20T01:31:02.375Z,99713.28
2023-03-20T01:32:12.520Z,99712.63
2023-03-20T01:33:20.576Z,99710.19
2023-03-20T01:34:23.551Z,99708.03
2023-03-20T01:35:28.141Z,99703.41
2023-03-20T01:36:30.566Z,99705.81
2023-03-20T01:37:33.383Z,99714.06
2023-03-20T01:38:36.004Z,99717.03
2023-03-20T01:39:41.269Z,99707.88
2023-03-20T01:41:04.332Z,99711.03
2023-03-20T01:42:07.286Z,99702.66
2023-03-20T01:43:16.875Z,99705.06
2023-03-20T01:44:28.040Z,99709.91
2023-03-20T01:45:36.067Z,99706.28
2023-03-20T01:46:40.575Z,99705.44
2023-03-20T01:47:43.061Z,99703.41
2023-03-20T01:48:52.136Z,99707.03
2023-03-20T01:50:26.734Z,99702.22
2023-03-20T01:51:33.127Z,99699.78
2023-03-20T01:52:35.618Z,99701.22
2023-03-20T01:53:37.808Z,99703.81
2023-03-20T01:54:40.142Z,99693.78
2023-03-20T01:55:45.991Z,99699.56
2023-03-20T01:56:53.848Z,99699.75
2023-03-20T01:57:59.211Z,99699.34
2023-03-20T01:59:12.779Z,99690.28
2023-03-20T02:00:16.849Z,99696.09
2023-03-20T02:01:19.035Z,99696.50
2023-03-20T02:02:25.332Z,99693.69
2023-03-20T02:03:27.865Z,99689.88
2023-03-20T02:04:38.601Z,99682.78
2023-03-20T02:05:40.762Z,99679.19
2023-03-20T02:06:45.261Z,99678.81
2023-03-20T02:07:56.727Z,99678.75
2023-03-20T02:08:59.150Z,99677.16
2023-03-20T02:10:08.375Z,99677.28
2023-03-20T02:11:11.989Z,99673.50
2023-03-20T02:12:14.308Z,99685.50
2023-03-20T02:13:17.780Z,99675.84
2023-03-20T02:14:21.383Z,99674.63
2023-03-20T02:15:28.097Z,99667.81
2023-03-20T02:16:31.431Z,99677.25
2023-03-20T02:17:34.530Z,99670.22
2023-03-20T02:18:40.300Z,99679.03
2023-03-20T02:19:56.402Z,99678.66
2023-03-20T02:21:28.624Z,99674.63
2023-03-20T02:22:48.845Z,99681.63
2023-03-20T02:24:13.481Z,99684.66
2023-03-20T02:26:02.257Z,99681.84
2023-03-20T02:27:38.734Z,99684.47
2023-03-20T02:29:07.607Z,99674.97
2023-03-20T02:30:34.712Z,99679.78
2023-03-20T02:32:15.709Z,99677.78
2023-03-20T02:33:50.976Z,99683.38
2023-03-20T02:35:26.139Z,99668.19
2023-03-20T02:36:46.631Z,99671.44
2023-03-20T02:37:59.785Z,99669.84
2023-03-20T02:39:38.428Z,99667.09
2023-03-20T02:41:08.758Z,99665.06
2023-03-20T02:42:38.405Z,99668.44
2023-03-20T02:43:49.582Z,99666.59
2023-03-20T02:45:10.127Z,99665.37
2023-03-20T02:46:44.125Z,99661.41
2023-03-20T02:48:24.612Z,99664.81
2023-03-20T02:49:41.812Z,99668.31
2023-03-20T02:50:43.656Z,99665.50
2023-03-20T02:52:04.342Z,99668.31
2023-03-20T02:53:24.470Z,99666.75
2023-03-20T02:55:03.511Z,99670.75
2023-03-20T02:56:06.275Z,99667.28
2023-03-20T02:57:44.276Z,99669.53
2023-03-20T02:58:55.107Z,99663.44
2023-03-20T03:00:05.236Z,99665.34
2023-03-20T03:01:26.471Z,99664.66
2023-03-20T03:02:43.288Z,99655.84
2023-03-20T03:03:55.863Z,99662.66
2023-03-20T03:05:03.068Z,99659.88
2023-03-20T03:06:16.040Z,99657.25
2023-03-20T03:07:22.252Z,99664.22
2023-03-20T03:08:28.650Z,99660.09
2023-03-20T03:09:38.840Z,99655.44
2023-03-20T03:10:46.437Z,99662.62
2023-03-20T03:12:09.812Z,99666.28
2023-03-20T03:13:18.519Z,99658.81
2023-03-20T03:14:34.903Z,99660.16
2023-03-20T03:15:43.802Z,99656.84
2023-03-20T03:16:49.170Z,99652.66
2023-03-20T03:17:51.923Z,99656.28
2023-03-20T03:19:06.534Z,99653.84
2023-03-20T03:20:21.594Z,99653.41
2023-03-20T03:21:23.929Z,99656.84
2023-03-20T03:22:26.732Z,99652.09
2023-03-20T03:23:35.943Z,99661.00
2023-03-20T03:24:43.750Z,99654.91
2023-03-20T03:25:46.542Z,99656.28
2023-03-20T03:26:48.844Z,99659.53
2023-03-20T03:28:29.975Z,99658.66
2023-03-20T03:29:36.593Z,99654.91
2023-03-20T03:30:39.989Z,99655.06
2023-03-20T03:31:43.184Z,99666.63
2023-03-20T03:32:54.708Z,99664.78
2023-03-20T03:34:00.266Z,99671.19
2023-03-20T03:35:05.602Z,99668.19
2023-03-20T03:36:52.825Z,99667.53
2023-03-20T03:38:01.632Z,99669.66
2023-03-20T03:39:29.535Z,99676.81
2023-03-20T03:40:49.876Z,99680.03
2023-03-20T03:42:12.003Z,99676.81
2023-03-20T03:43:32.316Z,99679.69
2023-03-20T03:44:55.861Z,99680.87
2023-03-20T03:46:05.560Z,99685.44
2023-03-20T03:47:20.925Z,99683.25
2023-03-20T03:48:28.267Z,99682.50
2023-03-20T03:49:37.979Z,99686.16
2023-03-20T03:50:48.941Z,99684.41
2023-03-20T03:51:56.969Z,99670.16
2023-03-20T03:53:04.703Z,99685.38
2023-03-20T03:54:11.228Z,99682.97
2023-03-20T03:55:22.009Z,99683.00
2023-03-20T03:56:28.252Z,99682.81
2023-03-20T03:57:37.139Z,99683.38
2023-03-20T03:58:43.568Z,99681.78
2023-03-20T03:59:49.235Z,99685.84
2023-03-20T04:00:53.164Z,99688.84
2023-03-20T04:01:58.346Z,99689.22
2023-03-20T04:03:00.610Z,99688.22
2023-03-20T04:04:09.670Z,99687.44
2023-03-20T04:05:13.816Z,99693.47
2023-03-20T04:06:17.858Z,99690.69
2023-03-20T04:07:20.177Z,99688.69
2023-03-20T04:08:22.099Z,99690.66
2023-03-20T04:09:24.204Z,99690.66
2023-03-20T04:10:26.336Z,99686.84
2023-03-20T04:11:31.313Z,99688.25
2023-03-20T04:12:35.377Z,99690.63
2023-03-20T04:13:37.365Z,99689.44
2023-03-20T04:14:39.455Z,99695.47
2023-03-20T04:15:42.549Z,99691.03
2023-03-20T04:16:44.925Z,99691.84
2023-03-20T04:17:47.827Z,99691.38
2023-03-20T04:18:51.277Z,99689.16
2023-03-20T04:19:53.526Z,99694.19
2023-03-20T04:20:55.537Z,99690.38
2023-03-20T04:21:57.421Z,99692.56
2023-03-20T04:22:59.679Z,99689.37
2023-03-20T04:24:01.978Z,99684.50
2023-03-20T04:25:05.868Z,99694.25
2023-03-20T04:26:07.825Z,99692.41
2023-03-20T04:27:09.979Z,99691.47
2023-03-20T04:28:16.372Z,99695.19
2023-03-20T04:29:19.086Z,99695.78
2023-03-20T04:30:22.407Z,99694.53
2023-03-20T04:31:29.827Z,99696.75
2023-03-20T04:32:31.816Z,99694.63
2023-03-20T04:33:34.211Z,99698.00
2023-03-20T04:34:36.598Z,99707.94
2023-03-20T04:35:39.155Z,99700.78
2023-03-20T04:36:44.973Z,99706.47
2023-03-20T04:37:47.276Z,99705.06
2023-03-20T04:38:49.573Z,99705.47
2023-03-20T04:39:51.956Z,99705.31
2023-03-20T04:40:54.039Z,99707.31
2023-03-20T04:41:55.942Z,99705.75
2023-03-20T04:42:57.948Z,99702.06
2023-03-20T04:44:00.328Z,99708.88
2023-03-20T04:45:02.612Z,99705.69
2023-03-20T04:46:04.897Z,99711.81
2023-03-20T04:47:07.197Z,99708.00
2023-03-20T04:48:10.300Z,99714.25
2023-03-20T04:49:13.027Z,99717.88
2023-03-20T04:50:15.040Z,99714.50
2023-03-20T04:51:17.216Z,99717.91
2023-03-20T04:52:19.687Z,99709.50
2023-03-20T04:53:21.652Z,99707.47
2023-03-20T04:54:24.224Z,99707.69
2023-03-20T04:55:27.005Z,99705.47
2023-03-20T04:56:29.201Z,99714.62
2023-03-20T04:57:39.855Z,99714.50
2023-03-20T04:58:45.608Z,99707.06
2023-03-20T04:59:48.907Z,99711.81
2023-03-20T05:00:52.576Z,99715.84
2023-03-20T05:01:54.482Z,99713.09
2023-03-20T05:02:58.483Z,99711.50
2023-03-20T05:04:01.480Z,99712.28
2023-03-20T05:05:05.183Z,99717.13
2023-03-20T05:06:10.403Z,99718.31
2023-03-20T05:07:16.133Z,99710.72
2023-03-20T05:08:18.795Z,99708.50
2023-03-20T05:09:21.002Z,99707.91
2023-03-20T05:10:23.995Z,99709.09
2023-03-20T05:11:26.705Z,99716.50
2023-03-20T05:12:29.105Z,99711.31
2023-03-20T05:13:31.409Z,99712.69
2023-03-20T05:14:33.632Z,99714.09
2023-03-20T05:15:37.876Z,99708.12
2023-03-20T05:16:40.591Z,99716.72
2023-03-20T05:17:43.812Z,99717.50
2023-03-20T05:18:46.299Z,99717.13
2023-03-20T05:19:49.955Z,99719.94
2023-03-20T05:20:52.301Z,99721.50
2023-03-20T05:21:54.431Z,99725.94
2023-03-20T05:22:59.479Z,99728.13
2023-03-20T05:24:02.064Z,99719.31
2023-03-20T05:25:06.093Z,99717.69
2023-03-20T05:26:08.547Z,99724.31
2023-03-20T05:27:11.584Z,99724.75
2023-03-20T05:28:14.005Z,99728.75
2023-03-20T05:29:17.243Z,99721.53
2023-03-20T05:30:19.746Z,99724.31
2023-03-20T05:31:22.558Z,99725.13
2023-03-20T05:32:24.883Z,99722.34
2023-03-20T05:33:27.227Z,99734.56
2023-03-20T05:34:29.286Z,99730.75
2023-03-20T05:35:31.905Z,99728.97
2023-03-20T05:36:34.202Z,99735.16
2023-03-20T05:37:39.692Z,99742.37
2023-03-20T05:38:41.974Z,99728.75
2023-03-20T05:39:43.990Z,99734.75
2023-03-20T05:40:46.912Z,99738.97
2023-03-20T05:41:49.436Z,99733.34
2023-03-20T05:42:54.303Z,99735.34
2023-03-20T05:43:59.626Z,99731.56
2023-03-20T05:45:02.595Z,99731.94
2023-03-20T05:46:05.935Z,99734.19
2023-03-20T05:47:08.292Z,99732.75
2023-03-20T05:48:11.589Z,99727.75
2023-03-20T05:49:17.422Z,99731.53
2023-03-20T05:50:21.642Z,99741.13
2023-03-20T05:51:23.822Z,99731.16
2023-03-20T05:52:26.718Z,99733.16
2023-03-20T05:53:31.633Z,99723.12
2023-03-20T05:54:35.758Z,99740.38
2023-03-20T05:55:37.998Z,99732.75
2023-03-20T05:56:42.251Z,99735.75
2023-03-20T05:57:44.926Z,99733.75
2023-03-20T05:58:49.190Z,99730.94
2023-03-20T05:59:51.618Z,99729.13
2023-03-20T06:00:54.455Z,99737.16
2023-03-20T06:01:57.477Z,99730.69
2023-03-20T06:02:59.830Z,99732.66
2023-03-20T06:04:02.441Z,99738.38
2023-03-20T06:05:07.937Z,99736.19
2023-03-20T06:06:10.580Z,99737.34
2023-03-20T06:07:13.755Z,99729.72
2023-03-20T06:08:15.996Z,99725.03
2023-03-20T06:09:18.382Z,99732.41
2023-03-20T06:10:23.076Z,99730.47
2023-03-20T06:11:25.235Z,99734.16
2023-03-20T06:12:27.571Z,99734.06
2023-03-20T06:13:29.745Z,99736.69
2023-03-20T06:14:31.677Z,99737.25
2023-03-20T06:15:35.155Z,99748.87
2023-03-20T06:16:38.188Z,99742.97
2023-03-20T06:17:40.413Z,99751.47
2023-03-20T06:18:42.407Z,99749.13
2023-03-20T06:19:44.416Z,99744.75
2023-03-20T06:20:46.582Z,99750.69
2023-03-20T06:21:49.775Z,99752.75
2023-03-20T06:22:52.534Z,99753.62
2023-03-20T06:23:54.841Z,99749.50
2023-03-20T06:24:57.510Z,99752.78
2023-03-20T06:26:03.251Z,99748.78
2023-03-20T06:27:06.608Z,99752.06
2023-03-20T06:28:09.153Z,99748.78
2023-03-20T06:29:11.792Z,99760.38
2023-03-20T06:30:15.427Z,99754.72
2023-03-20T06:31:18.427Z,99759.06
2023-03-20T06:32:21.147Z,99757.75
2023-03-20T06:33:24.290Z,99757.91
2023-03-20T06:34:27.698Z,99762.84
2023-03-20T06:35:31.348Z,99756.47
2023-03-20T06:36:33.545Z,99754.03
2023-03-20T06:37:36.521Z,99753.53
2023-03-20T06:38:39.077Z,99759.66
2023-03-20T06:39:41.716Z,99763.28
2023-03-20T06:40:45.241Z,99760.66
2023-03-20T06:41:47.733Z,99755.47
2023-03-20T06:42:50.077Z,99762.72
2023-03-20T06:43:52.621Z,99754.53
2023-03-20T06:44:55.126Z,99763.44
2023-03-20T06:45:57.991Z,99749.34
2023-03-20T06:47:00.426Z,99758.34
2023-03-20T06:48:06.993Z,99765.91
2023-03-20T06:49:09.299Z,99759.28
2023-03-20T06:50:11.747Z,99755.66
2023-03-20T06:51:13.821Z,99760.94
2023-03-20T06:52:21.650Z,99761.97
2023-03-20T06:53:24.561Z,99755.00
2023-03-20T06:54:27.423Z,99760.28
2023-03-20T06:55:29.906Z,99760.50
2023-03-20T06:56:32.438Z,99761.09
2023-03-20T06:57:34.964Z,99759.13
2023-03-20T06:58:37.085Z,99766.66
2023-03-20T06:59:39.519Z,99769.25
2023-03-20T07:00:42.178Z,99769.22
2023-03-20T07:01:44.231Z,99764.06
2023-03-20T07:02:46.324Z,99763.47
2023-03-20T07:03:48.853Z,99770.06
2023-03-20T07:04:54.320Z,99765.13
2023-03-20T07:05:57.778Z,99761.59
2023-03-20T07:06:59.652Z,99766.25
2023-03-20T07:08:01.610Z,99757.25
2023-03-20T07:09:04.198Z,99757.34
2023-03-20T07:10:07.544Z,99759.38
2023-03-20T07:11:10.084Z,99753.25
2023-03-20T07:12:16.616Z,99761.03
2023-03-20T07:13:19.994Z,99762.38
2023-03-20T07:14:22.755Z,99763.56
2023-03-20T07:15:26.712Z,99763.97
2023-03-20T07:16:28.740Z,99767.97
2023-03-20T07:17:30.711Z,99775.75
2023-03-20T07:18:32.693Z,99778.59
2023-03-20T07:19:38.125Z,99771.75
2023-03-20T07:20:40.874Z,99773.75
2023-03-20T07:21:44.017Z,99777.38
2023-03-20T07:22:48.135Z,99778.94
2023-03-20T07:23:50.497Z,99781.16
2023-03-20T07:24:52.554Z,99773.19
2023-03-20T07:25:55.634Z,99780.78
2023-03-20T07:26:57.586Z,99774.41
2023-03-20T07:28:00.553Z,99773.41
2023-03-20T07:29:03.229Z,99770.38
2023-03-20T07:30:08.973Z,99764.63
2023-03-20T07:31:23.526Z,99772.53
2023-03-20T07:32:27.022Z,99770.97
2023-03-20T07:33:29.392Z,99765.41
2023-03-20T07:34:31.372Z,99759.81
2023-03-20T07:35:34.278Z,99769.88
2023-03-20T07:36:36.612Z,99765.81
2023-03-20T07:37:39.187Z,99765.41
2023-03-20T07:38:41.296Z,99767.78
2023-03-20T07:39:43.851Z,99764.81
2023-03-20T07:40:46.536Z,99764.84
2023-03-20T07:41:50.010Z,99763.63
2023-03-20T07:42:55.498Z,99768.31
2023-03-20T07:43:58.945Z,99766.00
2023-03-20T07:45:02.970Z,99773.78
2023-03-20T07:46:08.435Z,99773.09
2023-03-20T07:47:11.858Z,99770.28
2023-03-20T07:48:13.749Z,99768.56
2023-03-20T07:49:18.542Z,99769.66
2023-03-20T07:50:20.568Z,99768.94
2023-03-20T07:51:22.475Z,99772.19
2023-03-20T07:52:24.743Z,99769.59
2023-03-20T07:53:27.984Z,99772.09
2023-03-20T07:54:30.000Z,99768.53
2023-03-20T07:55:32.691Z,99766.72
2023-03-20T07:56:34.643Z,99762.38
2023-03-20T07:57:36.765Z,99765.78
2023-03-20T07:58:38.646Z,99762.94
2023-03-20T07:59:40.747Z,99763.03
2023-03-20T08:00:42.623Z,99762.00
2023-03-20T08:01:45.379Z,99776.66
2023-03-20T08:02:47.284Z,99767.69
2023-03-20T08:03:49.407Z,99769.69
2023-03-20T08:04:51.733Z,99774.47
2023-03-20T08:05:54.630Z,99775.06
2023-03-20T08:06:57.034Z,99774.66
2023-03-20T08:07:59.126Z,99773.81
2023-03-20T08:09:02.047Z,99777.28
2023-03-20T08:10:04.496Z,99780.97
2023-03-20T08:11:06.643Z,99780.72
2023-03-20T08:12:08.900Z,99775.22
2023-03-20T08:13:10.778Z,99772.13
2023-03-20T08:14:12.950Z,99773.69
2023-03-20T08:15:15.281Z,99773.72
2023-03-20T08:16:17.685Z,99773.41
2023-03-20T08:17:21.652Z,99775.78
2023-03-20T08:18:23.947Z,99775.09
2023-03-20T08:19:26.494Z,99782.09
2023-03-20T08:20:28.389Z,99774.22
2023-03-20T08:21:31.619Z,99777.00
2023-03-20T08:22:33.803Z,99780.41
2023-03-20T08:23:35.847Z,99773.72
2023-03-20T08:24:38.046Z,99779.03
2023-03-20T08:25:39.938Z,99773.41
2023-03-20T08:26:42.350Z,99782.97
2023-03-20T08:27:44.598Z,99782.75
2023-03-20T08:28:48.184Z,99789.69
2023-03-20T08:29:50.776Z,99783.34
2023-03-20T08:30:52.777Z,99779.94
2023-03-20T08:31:56.043Z,99778.94
2023-03-20T08:32:59.099Z,99778.34
2023-03-20T08:34:01.006Z,99782.53
2023-03-20T08:35:02.982Z,99781.28
2023-03-20T08:36:05.243Z,99779.47
2023-03-20T08:37:08.019Z,99781.59
2023-03-20T08:38:13.406Z,99778.19
2023-03-20T08:39:15.778Z,99780.03
2023-03-20T08:40:17.755Z,99777.34
2023-03-20T08:41:19.882Z,99781.34
2023-03-20T08:42:21.693Z,99781.34
2023-03-20T08:43:24.061Z,99785.91
2023-03-20T08:44:26.900Z,99785.38
2023-03-20T08:45:28.803Z,99783.78
2023-03-20T08:46:30.775Z,99787.78
2023-03-20T08:47:32.745Z,99777.69
2023-03-20T08:48:35.217Z,99782.19
2023-03-20T08:49:37.087Z,99784.00
2023-03-20T08:50:39.861Z,99786.13
2023-03-20T08:51:43.070Z,99785.34
2023-03-20T08:52:46.920Z,99783.78
2023-03-20T08:53:49.110Z,99783.25
2023-03-20T08:54:51.314Z,99787.25
2023-03-20T08:55:54.115Z,99787.75
2023-03-20T08:56:56.466Z,99781.16
2023-03-20T08:57:58.518Z,99786.94
2023-03-20T08:59:00.810Z,99790.13
2023-03-20T09:00:04.519Z,99791.97
2023-03-20T09:01:08.622Z,99792.22
2023-03-20T09:02:12.495Z,99787.47
2023-03-20T09:03:16.354Z,99793.03
2023-03-20T09:04:18.807Z,99787.19
2023-03-20T09:05:20.943Z,99790.41
2023-03-20T09:06:22.961Z,99783.25
2023-03-20T09:07:24.948Z,99784.84
2023-03-20T09:08:27.041Z,99784.28
2023-03-20T09:09:30.131Z,99779.00
2023-03-20T09:10:32.007Z,99784.81
2023-03-20T09:11:34.185Z,99786.94
2023-03-20T09:12:36.306Z,99790.91
2023-03-20T09:13:38.458Z,99779.78
2023-03-20T09:14:40.989Z,99787.75
2023-03-20T09:15:43.530Z,99790.13
2023-03-20T09:16:45.557Z,99792.25
2023-03-20T09:17:47.356Z,99787.69
2023-03-20T09:18:49.229Z,99797.75
2023-03-20T09:19:51.397Z,99798.50
2023-03-20T09:20:53.333Z,99788.19
2023-03-20T09:21:55.499Z,99798.00
2023-03-20T09:22:57.802Z,99796.63
2023-03-20T09:23:59.738Z,99800.09
2023-03-20T09:25:01.979Z,99795.34
2023-03-20T09:26:04.051Z,99793.50
2023-03-20T09:27:05.942Z,99805.16
2023-03-20T09:28:07.904Z,99800.88
2023-03-20T09:29:10.007Z,99795.59
2023-03-20T09:30:13.108Z,99801.09
2023-03-20T09:31:15.083Z,99801.69
2023-03-20T09:32:17.021Z,99801.72
2023-03-20T09:33:18.940Z,99796.72
2023-03-20T09:34:21.079Z,99799.59
2023-03-20T09:35:23.310Z,99798.53
2023-03-20T09:36:25.549Z,99803.03
2023-03-20T09:37:27.821Z,99801.72
2023-03-20T09:38:29.708Z,99794.84
2023-03-20T09:39:31.607Z,99798.53
2023-03-20T09:40:53.046Z,99799.59
2023-03-20T09:41:57.182Z,99795.31
2023-03-20T09:43:17.758Z,99799.56
2023-03-20T09:44:34.123Z,99800.41
2023-03-20T09:45:51.773Z,99795.91
2023-03-20T09:47:20.754Z,99791.12
2023-03-20T09:48:48.631Z,99795.91
2023-03-20T09:50:05.238Z,99793.75
2023-03-20T09:51:37.514Z,99785.88
2023-03-20T09:53:07.311Z,99787.97
2023-03-20T09:54:20.249Z,99788.78
2023-03-20T09:55:29.941Z,99782.16
2023-03-20T09:56:32.192Z,99785.34
2023-03-20T09:57:43.403Z,99785.91
2023-03-20T09:58:53.690Z,99778.75
2023-03-20T09:59:59.636Z,99781.66
2023-03-20T10:01:05.612Z,99779.00
2023-03-20T10:02:24.304Z,99790.13
2023-03-20T10:03:51.677Z,99781.38
2023-03-20T10:04:55.728Z,99783.50
2023-03-20T10:06:13.405Z,99784.28
2023-03-20T10:07:17.883Z,99784.06
2023-03-20T10:08:25.924Z,99783.78
2023-03-20T10:09:31.783Z,99777.16
2023-03-20T10:10:39.484Z,99784.81
2023-03-20T10:12:04.082Z,99786.94
2023-03-20T10:13:32.227Z,99784.81
2023-03-20T10:15:11.660Z,99784.03
2023-03-20T10:16:16.328Z,99785.63
2023-03-20T10:17:48.255Z,99783.78
2023-03-20T10:19:02.752Z,99785.38
2023-03-20T10:20:14.163Z,99782.72
2023-03-20T10:21:29.264Z,99780.87
2023-03-20T10:22:42.365Z,99786.69
2023-03-20T10:24:06.629Z,99788.00
2023-03-20T10:25:23.958Z,99788.78
2023-03-20T10:26:27.521Z,99785.09
2023-03-20T10:27:36.722Z,99795.66
2023-03-20T10:29:07.373Z,99794.34
2023-03-20T10:30:46.437Z,99786.66
2023-03-20T10:31:55.233Z,99788.53
2023-03-20T10:33:14.353Z,99781.13
2023-03-20T10:34:25.264Z,99781.13
2023-03-20T10:35:40.146Z,99786.44
2023-03-20T10:36:54.057Z,99781.94
2023-03-20T10:37:55.943Z,99777.97
2023-03-20T10:39:12.729Z,99783.78
2023-03-20T10:40:31.953Z,99782.16
2023-03-20T10:41:38.217Z,99786.41
2023-03-20T10:42:45.087Z,99788.81
2023-03-20T10:43:51.488Z,99782.72
2023-03-20T10:45:37.842Z,99782.19
2023-03-20T10:46:47.253Z,99780.09
2023-03-20T10:47:52.808Z,99779.28
2023-03-20T10:49:03.170Z,99779.00
2023-03-20T10:50:15.466Z,99777.94
2023-03-20T10:51:27.334Z,99784.31
2023-03-20T10:52:33.570Z,99774.75
2023-03-20T10:53:47.345Z,99776.84
2023-03-20T10:54:56.413Z,99785.84
2023-03-20T10:56:03.237Z,99777.41
2023-03-20T10:57:10.741Z,99775.84
2023-03-20T10:58:23.285Z,99773.19
2023-03-20T10:59:27.358Z,99774.69
2023-03-20T11:00:29.762Z,99769.66
2023-03-20T11:01:34.365Z,99771.50
2023-03-20T11:02:37.504Z,99766.78
2023-03-20T11:03:41.346Z,99764.91
2023-03-20T11:04:43.679Z,99760.69
2023-03-20T11:05:55.577Z,99763.03
2023-03-20T11:07:32.176Z,99766.75
2023-03-20T11:08:42.971Z,99765.75
2023-03-20T11:09:45.200Z,99754.56
2023-03-20T11:10:58.487Z,99760.13
2023-03-20T11:12:03.190Z,99757.81
2023-03-20T11:13:16.916Z,99757.53
2023-03-20T11:14:22.874Z,99753.03
2023-03-20T11:15:34.971Z,99754.34
2023-03-20T11:16:38.893Z,99752.00
2023-03-20T11:17:41.590Z,99758.31
2023-03-20T11:18:43.707Z,99750.66
2023-03-20T11:19:45.628Z,99749.06
2023-03-20T11:20:52.589Z,99747.75
2023-03-20T11:22:00.267Z,99748.81
2023-03-20T11:23:06.175Z,99748.81
2023-03-20T11:24:40.389Z,99743.53
2023-03-20T11:25:53.252Z,99743.81
2023-03-20T11:27:04.527Z,99734.00
2023-03-20T11:29:00.100Z,99743.78
2023-03-20T11:30:04.952Z,99733.69
2023-03-20T11:31:16.158Z,99737.44
2023-03-20T11:32:34.696Z,99740.88
2023-03-20T11:33:39.796Z,99735.59
2023-03-20T11:34:43.465Z,99733.50
2023-03-20T11:35:47.701Z,99736.38
2023-03-20T11:37:16.468Z,99736.63
2023-03-20T11:38:21.781Z,99736.38
2023-03-20T11:39:29.793Z,99732.94
2023-03-20T11:40:32.637Z,99735.81
2023-03-20T11:41:34.896Z,99731.06
2023-03-20T11:42:37.306Z,99732.38
2023-03-20T11:43:41.755Z,99731.56
2023-03-20T11:44:57.556Z,99738.25
2023-03-20T11:46:04.477Z,99734.50
2023-03-20T11:47:14.718Z,99732.41
2023-03-20T11:48:20.307Z,99731.59
2023-03-20T11:49:30.616Z,99722.84
2023-03-20T11:50:37.004Z,99729.44
2023-03-20T11:51:40.254Z,99728.66
2023-03-20T11:52:42.150Z,99722.31
2023-03-20T11:53:49.724Z,99722.06
2023-03-20T11:54:58.124Z,99718.91
2023-03-20T11:56:07.110Z,99727.94
2023-03-20T11:57:38.699Z,99723.41
2023-03-20T11:58:59.081Z,99718.09
2023-03-20T12:00:06.782Z,99723.38
2023-03-20T12:01:12.257Z,99725.53
2023-03-20T12:02:22.849Z,99724.97
2023-03-20T12:03:41.060Z,99723.91
2023-03-20T12:04:44.061Z,99712.78
2023-03-20T12:05:46.296Z,99722.88
2023-03-20T12:06:53.770Z,99718.09
2023-03-20T12:08:01.026Z,99713.88
2023-03-20T12:09:10.990Z,99710.13
2023-03-20T12:10:14.775Z,99717.00
2023-03-20T12:11:36.023Z,99708.28
2023-03-20T12:12:45.706Z,99714.06
2023-03-20T12:13:51.403Z,99717.00
2023-03-20T12:15:14.980Z,99706.69
2023-03-20T12:16:21.590Z,99705.94
2023-03-20T12:17:35.691Z,99705.06
2023-03-20T12:18:43.476Z,99706.41
2023-03-20T12:19:51.546Z,99706.66
2023-03-20T12:21:19.380Z,99706.34
2023-03-20T12:22:27.199Z,99704.50
2023-03-20T12:23:41.148Z,99704.19
2023-03-20T12:24:58.388Z,99704.44
2023-03-20T12:26:11.048Z,99698.66
2023-03-20T12:27:30.950Z,99707.88
2023-03-20T12:28:33.722Z,99704.91
2023-03-20T12:29:43.222Z,99694.13
2023-03-20T12:30:59.934Z,99694.63
2023-03-20T12:32:15.173Z,99697.28
2023-03-20T12:33:38.411Z,99695.94
2023-03-20T12:34:47.139Z,99697.81
2023-03-20T12:35:52.190Z,99695.38
2023-03-20T12:36:57.511Z,99699.13
2023-03-20T12:37:59.919Z,99691.50
2023-03-20T12:39:04.334Z,99697.28
2023-03-20T12:40:12.133Z,99684.94
2023-03-20T12:41:22.512Z,99689.59
2023-03-20T12:42:33.236Z,99688.59
2023-03-20T12:44:03.657Z,99680.16
2023-03-20T12:45:13.040Z,99693.84
2023-03-20T12:46:26.195Z,99680.97
2023-03-20T12:48:01.967Z,99681.72
2023-03-20T12:49:29.846Z,99690.97
2023-03-20T12:50:41.693Z,99689.09
2023-03-20T12:52:28.532Z,99681.97
2023-03-20T12:53:47.431Z,99684.62
2023-03-20T12:55:17.040Z,99686.97
2023-03-20T12:56:57.265Z,99678.34
2023-03-20T12:58:26.122Z,99685.75
2023-03-20T12:59:43.097Z,99669.41
2023-03-20T13:00:59.023Z,99676.25
2023-03-20T13:02:39.901Z,99670.38
2023-03-20T13:04:16.478Z,99674.84
2023-03-20T13:05:41.930Z,99675.19
2023-03-20T13:06:52.614Z,99672.03
2023-03-20T13:08:12.258Z,99677.28
2023-03-20T13:09:36.257Z,99676.75
2023-03-20T13:10:51.603Z,99670.44
2023-03-20T13:12:04.014Z,99666.72